Time;durP1;ratioP1;P1;durP2;ratioP2;P2;SDS_P1;SDS_P2;PMS_P1;PMS_P2;Temp;Humidity;BMP_temperature;BMP_pressure;BME280_temperature;BME280_humidity;BME280_pressure;Samples;Min_cycle;Max_cycle;Signal;HPM_P1;HPM_P2
2023/06/10 00:00:41;;;;;;;86.60;47.93;;;20.60;49.50;;;;;;5021178;28;20412;-85
2023/06/10 00:03:08;;;;;;;84.63;46.97;;;20.40;55.80;;;;;;5021202;28;20184;-85
2023/06/10 00:05:34;;;;;;;92.20;48.00;;;20.60;43.30;;;;;;5021534;28;20416;-85
2023/06/10 00:08:06;;;;;;;85.50;44.10;;;20.50;45.80;;;;;;5021043;28;20453;-85
2023/06/10 00:10:33;;;;;;;86.00;50.53;;;20.50;54.60;;;;;;5040179;28;20386;-85
2023/06/10 00:12:59;;;;;;;84.43;42.70;;;20.50;52.70;;;;;;5039111;28;20454;-85
2023/06/10 00:15:25;;;;;;;96.43;38.43;;;20.40;55.60;;;;;;5021789;28;20426;-85
2023/06/10 00:17:52;;;;;;;81.40;36.23;;;20.30;63.90;;;;;;5039073;28;20192;-85
2023/06/10 00:20:18;;;;;;;82.77;39.30;;;20.20;65.10;;;;;;5039340;28;20250;-85
2023/06/10 00:22:45;;;;;;;82.37;36.43;;;20.20;66.60;;;;;;5040354;28;20435;-85
2023/06/10 00:25:11;;;;;;;79.97;30.27;;;20.20;67.00;;;;;;5040244;28;20172;-85
2023/06/10 00:27:36;;;;;;;76.83;24.33;;;20.10;72.10;;;;;;5039902;28;20424;-85
2023/06/10 00:30:06;;;;;;;77.97;24.70;;;20.00;76.60;;;;;;5022221;28;20171;-85
2023/06/10 00:32:33;;;;;;;74.80;18.73;;;19.80;84.80;;;;;;5021132;28;20203;-85
2023/06/10 00:34:59;;;;;;;78.50;22.80;;;19.80;89.80;;;;;;5039496;28;20502;-85
2023/06/10 00:37:24;;;;;;;75.00;18.83;;;19.70;90.10;;;;;;5038808;28;20456;-85
2023/06/10 00:39:51;;;;;;;75.47;16.77;;;19.70;88.80;;;;;;5039597;28;20170;-83
2023/06/10 00:42:16;;;;;;;75.50;16.77;;;19.60;91.40;;;;;;5040208;28;20183;-85
2023/06/10 00:44:42;;;;;;;74.90;17.70;;;19.60;93.30;;;;;;5039406;28;20401;-85
2023/06/10 00:47:08;;;;;;;75.83;19.07;;;19.60;93.50;;;;;;5039393;28;20295;-85
2023/06/10 00:49:34;;;;;;;77.30;16.50;;;19.40;96.30;;;;;;5039765;28;20162;-85
2023/06/10 00:52:03;;;;;;;75.10;19.30;;;19.40;94.80;;;;;;5040244;28;20309;-85
2023/06/10 00:54:31;;;;;;;76.60;16.70;;;19.40;96.40;;;;;;5039113;28;20439;-85
2023/06/10 00:57:00;;;;;;;75.70;17.60;;;19.20;98.30;;;;;;5039552;28;20433;-85
2023/06/10 00:59:26;;;;;;;74.40;17.37;;;19.10;99.90;;;;;;5039420;28;20753;-85
2023/06/10 01:01:52;;;;;;;76.13;18.20;;;19.10;98.50;;;;;;5038982;28;20479;-85
2023/06/10 01:04:19;;;;;;;76.20;16.00;;;19.10;99.90;;;;;;5038390;28;20408;-85
2023/06/10 01:07:00;;;;;;;75.70;17.37;;;19.10;97.90;;;;;;5039171;28;20427;-84
2023/06/10 01:09:40;;;;;;;74.97;14.60;;;19.00;99.90;;;;;;5038710;28;20389;-85
2023/06/10 01:12:10;;;;;;;75.70;14.97;;;19.00;99.90;;;;;;5038282;28;20381;-85
2023/06/10 01:14:36;;;;;;;77.17;15.90;;;19.00;99.90;;;;;;5038196;28;20773;-85
2023/06/10 01:17:03;;;;;;;78.67;16.70;;;19.00;99.90;;;;;;5038263;28;20417;-85
2023/06/10 01:19:33;;;;;;;81.50;14.27;;;18.90;99.90;;;;;;5020613;28;20427;-85
2023/06/10 01:22:00;;;;;;;76.00;14.43;;;18.90;99.90;;;;;;5039024;28;20369;-85
2023/06/10 01:24:28;;;;;;;73.13;13.90;;;18.90;99.30;;;;;;5039252;28;20436;-85
2023/06/10 01:26:56;;;;;;;75.43;13.70;;;18.90;99.90;;;;;;5039278;28;20862;-85
2023/06/10 01:29:31;;;;;;;74.03;13.40;;;18.90;99.90;;;;;;5039996;28;20894;-85
2023/06/10 01:32:06;;;;;;;74.53;13.50;;;18.90;99.90;;;;;;5039594;28;20468;-85
2023/06/10 01:34:34;;;;;;;75.97;14.07;;;18.80;99.90;;;;;;5039215;28;20439;-85
2023/06/10 01:37:00;;;;;;;75.93;13.10;;;18.70;99.90;;;;;;5039469;28;20427;-85
2023/06/10 01:39:26;;;;;;;78.77;14.23;;;18.70;99.90;;;;;;5021472;28;20409;-85
2023/06/10 01:41:53;;;;;;;74.70;12.97;;;18.50;99.90;;;;;;5038454;28;20404;-85
2023/06/10 01:44:20;;;;;;;75.70;13.73;;;18.70;99.90;;;;;;5037880;28;20405;-85
2023/06/10 01:46:49;;;;;;;74.67;12.63;;;18.60;99.90;;;;;;5038915;28;20961;-85
2023/06/10 01:49:15;;;;;;;73.77;12.50;;;18.60;99.90;;;;;;5038863;28;20435;-85
2023/06/10 01:51:41;;;;;;;74.10;12.50;;;18.50;99.90;;;;;;5021145;28;20838;-85
2023/06/10 01:54:06;;;;;;;74.00;14.00;;;18.40;99.90;;;;;;5038829;28;20436;-85
2023/06/10 01:56:32;;;;;;;75.00;13.70;;;18.30;99.90;;;;;;5038797;28;20178;-85
2023/06/10 01:59:01;;;;;;;75.07;13.57;;;18.40;99.90;;;;;;5038199;28;20525;-84
2023/06/10 02:01:26;;;;;;;73.50;13.17;;;18.40;99.90;;;;;;5038405;28;20396;-85
2023/06/10 02:03:52;;;;;;;74.10;13.63;;;18.30;99.90;;;;;;5039167;28;20558;-85
2023/06/10 02:06:18;;;;;;;75.97;13.67;;;18.40;99.90;;;;;;5039731;28;20161;-85
2023/06/10 02:08:44;;;;;;;76.40;15.00;;;18.30;99.90;;;;;;5021090;28;20812;-85
2023/06/10 02:11:10;;;;;;;76.03;13.27;;;18.20;99.90;;;;;;5038455;28;20168;-85
2023/06/10 02:13:36;;;;;;;75.50;14.53;;;18.20;99.90;;;;;;5020531;28;20201;-85
2023/06/10 02:16:01;;;;;;;75.87;14.30;;;18.20;99.90;;;;;;5038432;28;20245;-85
2023/06/10 02:18:28;;;;;;;73.50;12.90;;;18.30;99.90;;;;;;5021019;28;20185;-85
2023/06/10 02:20:54;;;;;;;74.37;13.57;;;18.30;99.90;;;;;;5038715;28;20184;-85
2023/06/10 02:25:50;;;;;;;77.40;16.20;;;18.00;99.90;;;;;;5425720;22;20501;-82
2023/06/10 02:28:16;;;;;;;73.90;14.07;;;18.00;99.90;;;;;;5077254;28;20529;-85
2023/06/10 02:30:42;;;;;;;74.33;14.93;;;17.90;99.90;;;;;;5078895;28;20442;-85
2023/06/10 02:33:11;;;;;;;74.40;16.47;;;17.80;99.90;;;;;;5078424;28;20191;-85
2023/06/10 02:35:38;;;;;;;76.37;16.97;;;17.80;99.90;;;;;;5062575;28;20409;-85
2023/06/10 02:38:04;;;;;;;76.63;17.50;;;17.70;99.90;;;;;;5082113;28;20459;-85
2023/06/10 02:40:29;;;;;;;77.93;19.63;;;17.80;99.90;;;;;;5081898;28;20465;-85
2023/06/10 02:42:55;;;;;;;74.10;16.80;;;17.70;99.90;;;;;;5082816;28;20412;-85
2023/06/10 02:45:21;;;;;;;74.50;16.50;;;17.60;99.90;;;;;;5081860;28;20168;-85
2023/06/10 02:47:46;;;;;;;75.40;19.23;;;17.50;99.90;;;;;;5082076;28;20187;-84
2023/06/10 02:50:12;;;;;;;76.57;17.70;;;17.50;99.90;;;;;;5081549;28;20196;-85
2023/06/10 02:52:38;;;;;;;76.23;17.13;;;17.50;99.90;;;;;;5082102;28;20278;-85
2023/06/10 02:55:04;;;;;;;76.27;18.70;;;17.40;99.90;;;;;;5082001;28;20157;-85
2023/06/10 02:57:30;;;;;;;77.20;17.53;;;17.40;99.90;;;;;;5063866;28;20211;-84
2023/06/10 02:59:55;;;;;;;77.03;17.97;;;17.50;99.90;;;;;;5082246;28;20402;-85
2023/06/10 03:02:21;;;;;;;74.97;17.17;;;17.40;99.90;;;;;;5081701;28;20210;-85
2023/06/10 03:04:47;;;;;;;77.97;17.23;;;17.50;99.90;;;;;;5081067;28;20168;-85
2023/06/10 03:07:13;;;;;;;75.20;16.87;;;17.40;99.90;;;;;;5079638;28;20200;-85
2023/06/10 03:09:39;;;;;;;77.17;19.30;;;17.30;99.90;;;;;;5079937;28;20467;-85
2023/06/10 03:12:05;;;;;;;75.70;17.80;;;17.30;99.90;;;;;;5081465;28;20390;-84
2023/06/10 03:14:31;;;;;;;77.07;18.17;;;17.30;99.90;;;;;;5080381;28;20442;-85
2023/06/10 03:16:57;;;;;;;78.23;18.63;;;17.20;99.90;;;;;;5081470;28;20487;-84
2023/06/10 03:19:23;;;;;;;78.40;18.00;;;17.20;99.90;;;;;;5080466;28;20160;-85
2023/06/10 03:22:06;;;;;;;78.40;17.83;;;17.10;99.90;;;;;;5080517;28;20198;-84
2023/06/10 03:24:32;;;;;;;77.03;19.43;;;17.10;99.90;;;;;;5080799;28;20152;-84
2023/06/10 03:26:57;;;;;;;75.70;18.33;;;17.10;99.90;;;;;;5080297;28;21028;-85
2023/06/10 03:29:23;;;;;;;79.00;17.87;;;17.10;99.90;;;;;;5080720;28;20190;-84
2023/06/10 03:31:49;;;;;;;78.77;19.27;;;17.10;99.90;;;;;;5079748;28;20186;-85
2023/06/10 03:34:14;;;;;;;76.87;18.77;;;17.10;99.90;;;;;;5079828;28;20219;-84
2023/06/10 03:36:42;;;;;;;76.37;19.20;;;17.10;99.90;;;;;;5061135;28;20551;-84
2023/06/10 03:39:08;;;;;;;78.53;20.30;;;16.90;99.90;;;;;;5080260;28;20160;-84
2023/06/10 03:41:34;;;;;;;76.47;21.67;;;17.00;99.90;;;;;;5062071;28;20463;-84
2023/06/10 03:44:00;;;;;;;77.70;21.07;;;17.00;99.90;;;;;;5079351;28;20875;-85
2023/06/10 03:46:26;;;;;;;79.37;22.00;;;17.00;99.90;;;;;;5079856;28;20160;-84
2023/06/10 03:48:51;;;;;;;79.20;22.07;;;17.00;99.90;;;;;;5079726;28;20886;-84
2023/06/10 03:51:17;;;;;;;79.03;21.80;;;16.90;99.90;;;;;;5061833;28;20183;-84
2023/06/10 03:53:43;;;;;;;81.27;27.57;;;16.90;99.90;;;;;;5080068;28;20702;-84
2023/06/10 03:56:15;;;;;;;80.27;28.30;;;16.90;99.90;;;;;;5148830;22;20683;-81
2023/06/10 03:58:51;;;;;;;80.80;24.10;;;17.00;99.90;;;;;;5078738;28;20184;-83
2023/06/10 04:01:25;;;;;;;80.97;26.90;;;17.00;99.90;;;;;;5079196;28;20417;-84
2023/06/10 04:04:07;;;;;;;;;;;;;;;;;;;;;
2023/06/10 04:06:33;;;;;;;80.17;28.10;;;17.00;99.90;;;;;;5078604;28;20444;-84
2023/06/10 04:09:07;;;;;;;77.97;26.50;;;17.00;99.90;;;;;;5078685;28;20831;-84
2023/06/10 04:11:35;;;;;;;78.33;22.93;;;17.10;99.90;;;;;;5078633;28;20144;-84
2023/06/10 04:14:13;;;;;;;78.73;22.63;;;17.20;99.90;;;;;;5078324;28;20446;-84
2023/06/10 04:16:45;;;;;;;83.73;26.93;;;17.20;99.90;;;;;;5060584;28;20436;-83
2023/06/10 04:19:13;;;;;;;81.60;27.43;;;17.20;99.90;;;;;;5078542;28;20406;-83
2023/06/10 04:21:41;;;;;;;80.70;32.67;;;17.20;99.90;;;;;;5078738;28;20401;-84
2023/06/10 04:24:12;;;;;;;83.40;35.17;;;17.10;99.90;;;;;;5060543;28;20963;-84
2023/06/10 04:27:07;;;;;;;82.17;31.37;;;17.20;99.90;;;;;;5060057;28;20430;-83
2023/06/10 04:29:37;;;;;;;87.67;34.00;;;17.20;99.90;;;;;;5042580;28;20406;-84
2023/06/10 04:32:09;;;;;;;85.17;38.00;;;17.30;99.90;;;;;;5078551;28;20448;-84
2023/06/10 04:34:36;;;;;;;81.87;31.40;;;17.30;99.90;;;;;;5078222;28;20434;-84
2023/06/10 04:37:04;;;;;;;77.47;20.57;;;17.60;99.90;;;;;;5078267;28;20489;-84
2023/06/10 04:39:44;;;;;;;77.40;17.63;;;18.00;99.90;;;;;;5078363;28;20460;-83
2023/06/10 04:42:10;;;;;;;78.40;15.40;;;18.30;99.90;;;;;;5078145;28;20362;-83
2023/06/10 04:44:36;;;;;;;82.70;15.03;;;18.60;99.90;;;;;;5078072;28;20490;-84
2023/06/10 04:47:22;;;;;;;73.73;13.20;;;19.00;99.90;;;;;;5077894;28;20184;-84
2023/06/10 04:49:48;;;;;;;75.57;13.37;;;19.20;99.90;;;;;;5060070;28;20211;-84
2023/06/10 04:52:19;;;;;;;78.40;14.17;;;19.50;99.90;;;;;;5078156;28;20406;-84
2023/06/10 04:54:51;;;;;;;75.50;13.43;;;19.90;99.90;;;;;;5059841;28;20508;-84
2023/06/10 04:57:25;;;;;;;75.13;13.17;;;20.10;99.90;;;;;;5077500;28;20453;-84
2023/06/10 04:59:52;;;;;;;73.60;13.27;;;20.40;99.90;;;;;;5059646;28;20398;-84
2023/06/10 05:02:20;;;;;;;74.10;12.17;;;20.60;99.90;;;;;;5059967;28;20407;-84
2023/06/10 05:04:46;;;;;;;74.03;12.73;;;20.80;96.20;;;;;;5077607;28;20409;-83
2023/06/10 05:07:14;;;;;;;78.30;12.00;;;21.00;93.00;;;;;;5077403;28;20429;-83
2023/06/10 05:09:40;;;;;;;75.30;13.20;;;20.90;90.00;;;;;;5077276;28;20163;-84
2023/06/10 05:12:06;;;;;;;76.93;13.47;;;20.90;90.60;;;;;;5059317;28;20970;-84
2023/06/10 05:14:42;;;;;;;74.80;11.97;;;20.80;91.80;;;;;;5077806;28;20184;-83
2023/06/10 05:17:10;;;;;;;74.03;13.17;;;20.80;90.60;;;;;;5076972;28;20755;-83
2023/06/10 05:19:42;;;;;;;74.33;10.93;;;20.80;91.30;;;;;;5076952;28;20406;-83
2023/06/10 05:22:11;;;;;;;74.23;13.27;;;20.80;93.60;;;;;;5077521;28;20459;-83
2023/06/10 05:24:40;;;;;;;75.87;13.33;;;20.80;93.00;;;;;;5058921;28;20413;-83
2023/06/10 05:27:13;;;;;;;74.77;13.33;;;20.80;94.70;;;;;;5076534;28;20430;-83
2023/06/10 05:29:41;;;;;;;74.80;11.50;;;20.80;95.90;;;;;;5077028;28;20417;-83
2023/06/10 05:32:13;;;;;;;75.10;10.67;;;20.80;93.30;;;;;;5077203;28;20460;-83
2023/06/10 05:34:45;;;;;;;72.60;11.47;;;20.80;91.40;;;;;;5076833;28;20476;-83
2023/06/10 05:37:34;;;;;;;75.63;10.63;;;20.80;89.10;;;;;;5059024;28;20459;-83
2023/06/10 05:40:34;;;;;;;72.33;10.60;;;20.70;92.30;;;;;;5077225;28;20379;-83
2023/06/10 05:43:02;;;;;;;75.07;10.90;;;20.60;96.00;;;;;;5053056;28;20474;-83
2023/06/10 05:45:34;;;;;;;72.50;9.83;;;20.50;81.50;;;;;;5058936;28;20959;-83
2023/06/10 05:48:02;;;;;;;73.00;9.40;;;20.50;90.70;;;;;;5077076;28;20465;-83
2023/06/10 05:50:28;;;;;;;72.10;10.63;;;20.50;64.20;;;;;;5077196;28;20819;-83
2023/06/10 05:52:54;;;;;;;72.60;10.30;;;20.60;75.10;;;;;;5077228;28;20446;-83
2023/06/10 05:55:29;;;;;;;75.17;10.47;;;20.70;41.70;;;;;;5077290;28;20169;-84
2023/06/10 05:58:06;;;;;;;71.57;10.70;;;20.70;40.00;;;;;;5077384;28;20434;-83
2023/06/10 06:04:00;;;;;;;72.87;11.90;;;20.80;32.70;;;;;;5077598;28;20390;-84
2023/06/10 06:14:04;;;;;;;;;;;;;;;;;;;;;
2023/06/10 06:20:37;;;;;;;;;;;;;;;;;;;;;
2023/06/10 06:23:46;;;;;;;;;;;;;;;;;;;;;
2023/06/10 06:30:38;;;;;;;;;;;;;;;;;;;;;
2023/06/10 06:34:18;;;;;;;73.50;14.20;;;21.40;1.00;;;;;;5080169;28;20808;-84
2023/06/10 07:01:25;;;;;;;73.73;9.63;;;22.20;1.00;;;;;;4756314;30;20996;-84
2023/06/10 07:03:50;;;;;;;71.70;9.77;;;22.30;1.00;;;;;;4871852;29;20982;-85
2023/06/10 07:06:19;;;;;;;74.37;10.47;;;22.40;1.00;;;;;;5008828;28;20426;-84
2023/06/10 07:09:09;;;;;;;72.60;11.80;;;22.40;1.00;;;;;;5081896;28;20402;-85
2023/06/10 07:11:40;;;;;;;70.70;9.47;;;22.50;1.00;;;;;;5080457;28;20464;-85
2023/06/10 07:14:47;;;;;;;72.70;12.03;;;22.50;1.00;;;;;;5080774;28;20434;-85
2023/06/10 07:17:21;;;;;;;70.63;10.10;;;22.60;1.00;;;;;;5079764;28;20770;-85
2023/06/10 07:19:46;;;;;;;72.63;12.17;;;22.80;1.00;;;;;;5080708;28;20398;-84
2023/06/10 07:22:12;;;;;;;77.60;12.83;;;22.80;1.00;;;;;;5080010;28;20408;-85
2023/06/10 07:24:41;;;;;;;73.93;13.50;;;22.90;1.00;;;;;;5080780;28;20182;-85
2023/06/10 07:27:10;;;;;;;74.07;15.00;;;22.90;1.00;;;;;;5080404;28;20180;-85
2023/06/10 07:29:45;;;;;;;77.27;13.33;;;23.00;1.00;;;;;;5062509;28;20428;-84
2023/06/10 07:32:40;;;;;;;73.57;12.70;;;23.00;1.00;;;;;;5061853;28;20410;-84
2023/06/10 07:35:20;;;;;;;72.17;11.70;;;23.10;1.00;;;;;;5079610;28;20399;-84
2023/06/10 07:37:49;;;;;;;75.67;13.30;;;23.10;1.00;;;;;;5079557;28;20410;-84
2023/06/10 07:40:22;;;;;;;74.07;13.10;;;23.20;1.00;;;;;;5061216;28;20403;-85
2023/06/10 07:42:52;;;;;;;72.90;13.00;;;23.30;1.00;;;;;;5062226;28;20870;-85
2023/06/10 07:45:18;;;;;;;73.17;13.27;;;23.30;1.00;;;;;;5061865;28;20418;-83
2023/06/10 07:47:44;;;;;;;72.70;12.13;;;23.40;1.00;;;;;;5079633;28;20487;-84
2023/06/10 07:50:13;;;;;;;73.73;15.40;;;23.40;1.00;;;;;;5078854;28;20401;-84
2023/06/10 07:53:04;;;;;;;72.80;13.00;;;23.50;1.00;;;;;;5080216;28;20401;-85
2023/06/10 07:55:30;;;;;;;75.17;13.53;;;23.50;1.00;;;;;;5061056;28;20448;-83
2023/06/10 07:57:56;;;;;;;72.87;11.97;;;23.60;1.00;;;;;;5078823;28;20464;-85
2023/06/10 08:00:21;;;;;;;73.77;12.67;;;23.60;1.00;;;;;;5060869;28;20164;-84
2023/06/10 08:02:50;;;;;;;73.20;12.10;;;23.70;1.00;;;;;;5079330;28;20170;-85
2023/06/10 08:05:16;;;;;;;74.10;11.50;;;23.80;1.00;;;;;;5062073;28;20230;-84
2023/06/10 08:07:42;;;;;;;79.60;15.63;;;23.80;1.00;;;;;;5078737;28;20916;-84
2023/06/10 08:10:08;;;;;;;74.20;15.07;;;23.80;1.00;;;;;;5078980;28;20164;-84
2023/06/10 08:12:34;;;;;;;75.97;14.40;;;23.90;1.00;;;;;;5079109;28;20443;-85
2023/06/10 08:15:01;;;;;;;75.10;15.17;;;24.00;1.00;;;;;;5079334;28;20407;-84
2023/06/10 08:17:27;;;;;;;73.50;10.20;;;24.00;1.00;;;;;;5060569;28;20430;-84
2023/06/10 08:19:53;;;;;;;73.00;13.07;;;24.10;1.00;;;;;;5061033;28;20428;-84
2023/06/10 08:22:19;;;;;;;75.73;14.17;;;24.10;1.00;;;;;;5078317;28;20168;-85
2023/06/10 08:24:44;;;;;;;73.97;14.00;;;24.20;1.00;;;;;;5078925;28;20512;-84
2023/06/10 08:27:10;;;;;;;75.10;14.00;;;24.30;1.00;;;;;;5079150;28;20183;-84
2023/06/10 08:29:36;;;;;;;74.70;13.63;;;24.30;1.00;;;;;;5060819;28;20172;-84
2023/06/10 08:32:02;;;;;;;75.07;11.67;;;24.40;1.00;;;;;;5078694;28;20632;-85
2023/06/10 08:34:33;;;;;;;74.03;11.07;;;24.50;1.00;;;;;;5079870;28;20718;-85
2023/06/10 08:36:58;;;;;;;74.00;10.10;;;24.50;1.00;;;;;;5079679;28;20180;-85
2023/06/10 08:39:24;;;;;;;73.07;10.20;;;24.50;1.00;;;;;;5079735;28;20403;-83
2023/06/10 08:42:16;;;;;;;74.47;10.73;;;24.40;1.00;;;;;;5078309;28;20190;-85
2023/06/10 08:44:43;;;;;;;74.27;9.60;;;24.50;1.00;;;;;;5078774;28;20145;-84
2023/06/10 08:47:16;;;;;;;76.00;11.27;;;24.40;1.00;;;;;;5059481;28;20531;-83
2023/06/10 08:49:46;;;;;;;73.00;10.30;;;24.50;1.00;;;;;;5077792;28;20410;-83
2023/06/10 08:52:17;;;;;;;71.47;9.83;;;24.60;1.00;;;;;;5078272;28;20436;-84
2023/06/10 08:54:48;;;;;;;74.57;11.40;;;24.70;1.00;;;;;;5078331;28;20485;-83
2023/06/10 08:57:20;;;;;;;74.10;10.17;;;24.80;1.00;;;;;;5077790;28;20506;-83
2023/06/10 08:59:46;;;;;;;79.27;12.10;;;24.90;1.00;;;;;;5078977;28;20553;-83
2023/06/10 09:02:13;;;;;;;75.23;11.17;;;25.00;1.00;;;;;;5078738;28;20414;-82
2023/06/10 09:04:39;;;;;;;73.87;11.53;;;25.10;1.00;;;;;;5059806;28;20413;-82
2023/06/10 09:07:06;;;;;;;72.77;10.43;;;25.20;1.00;;;;;;5078730;28;20925;-84
2023/06/10 09:09:36;;;;;;;73.03;10.50;;;25.30;1.00;;;;;;5061055;28;20495;-84
2023/06/10 09:12:01;;;;;;;78.97;11.97;;;25.40;1.00;;;;;;5078818;28;20433;-83
2023/06/10 09:14:27;;;;;;;75.17;12.83;;;25.50;1.00;;;;;;5078561;28;20787;-84
2023/06/10 09:16:56;;;;;;;73.20;10.40;;;25.60;1.00;;;;;;5077665;28;20551;-83
2023/06/10 09:19:26;;;;;;;76.27;10.33;;;25.90;1.00;;;;;;5060624;28;20188;-83
2023/06/10 09:21:52;;;;;;;73.10;12.03;;;26.00;1.00;;;;;;5078325;28;20391;-83
2023/06/10 09:24:18;;;;;;;75.83;13.67;;;26.10;1.00;;;;;;5077685;28;20401;-84
2023/06/10 09:26:45;;;;;;;76.10;14.23;;;26.20;1.00;;;;;;5077770;28;20208;-83
2023/06/10 09:29:11;;;;;;;83.00;13.80;;;26.30;1.00;;;;;;5059699;28;20417;-83
2023/06/10 09:31:39;;;;;;;77.90;13.20;;;26.30;1.00;;;;;;5077585;28;20775;-83
2023/06/10 09:34:12;;;;;;;73.50;13.60;;;26.50;1.00;;;;;;5077874;28;20446;-83
2023/06/10 09:47:08;;;;;;;73.07;8.30;;;27.00;1.00;;;;;;4950783;28;20527;-84
2023/06/10 09:58:33;;;;;;;72.27;6.87;;;27.80;1.00;;;;;;5192263;22;20475;-82
2023/06/10 10:01:38;;;;;;;79.07;8.40;;;28.30;1.00;;;;;;4974025;28;20411;-82
2023/06/10 10:08:01;;;;;;;;;;;;;;;;;;;;;
2023/06/10 10:10:29;;;;;;;72.47;6.63;;;29.00;1.00;;;;;;4974683;28;20413;-82
2023/06/10 10:13:01;;;;;;;76.60;7.50;;;28.90;1.00;;;;;;5056020;28;20486;-82
2023/06/10 10:15:31;;;;;;;74.67;7.23;;;28.80;1.00;;;;;;5055684;28;20388;-81
2023/06/10 10:18:09;;;;;;;76.73;7.80;;;28.60;1.00;;;;;;5039196;28;20442;-78
2023/06/10 10:20:44;;;;;;;72.53;7.60;;;28.60;1.00;;;;;;5055203;28;20387;-78
2023/06/10 10:23:13;;;;;;;75.07;8.50;;;28.70;1.00;;;;;;5055217;28;20399;-79
2023/06/10 10:25:42;;;;;;;76.30;7.63;;;29.10;1.00;;;;;;5037101;28;20772;-79
2023/06/10 10:28:12;;;;;;;73.07;9.53;;;29.20;1.00;;;;;;5036921;28;20439;-78
2023/06/10 10:30:42;;;;;;;74.10;10.20;;;29.20;1.00;;;;;;5037188;28;20565;-79
2023/06/10 10:33:22;;;;;;;72.87;8.97;;;29.20;1.00;;;;;;5054869;28;20981;-79
2023/06/10 10:35:51;;;;;;;75.57;9.60;;;29.20;1.00;;;;;;5054766;28;20875;-78
2023/06/10 10:38:17;;;;;;;77.43;10.90;;;29.30;1.00;;;;;;5036869;28;20427;-79
2023/06/10 10:40:44;;;;;;;76.60;12.20;;;29.80;1.00;;;;;;5037603;28;20869;-79
2023/06/10 10:43:11;;;;;;;81.57;14.07;;;29.80;1.00;;;;;;5037413;28;20902;-79
2023/06/10 10:45:37;;;;;;;75.97;11.07;;;29.60;1.00;;;;;;5037034;28;20438;-79
2023/06/10 10:48:11;;;;;;;73.70;11.80;;;29.90;1.00;;;;;;5036913;28;20468;-79
2023/06/10 10:50:40;;;;;;;74.50;11.83;;;29.90;1.00;;;;;;5036828;28;20186;-79
2023/06/10 10:53:06;;;;;;;76.70;14.37;;;30.30;1.00;;;;;;5037022;28;20451;-78
2023/06/10 10:55:32;;;;;;;77.33;14.40;;;30.50;1.00;;;;;;5054514;28;20406;-79
2023/06/10 10:58:07;;;;;;;75.40;13.30;;;30.40;1.00;;;;;;5040132;28;20442;-79
2023/06/10 11:00:34;;;;;;;75.90;11.70;;;30.60;1.00;;;;;;5058431;28;20452;-78
2023/06/10 11:03:07;;;;;;;74.03;11.77;;;30.70;1.00;;;;;;5040497;28;20419;-80
2023/06/10 11:05:40;;;;;;;72.53;10.07;;;30.50;1.00;;;;;;5058378;28;20728;-78
2023/06/10 11:08:07;;;;;;;75.60;12.57;;;30.10;1.00;;;;;;5058203;28;20434;-79
2023/06/10 11:10:41;;;;;;;80.17;14.00;;;30.00;1.00;;;;;;5040278;28;20419;-78
2023/06/10 11:13:14;;;;;;;76.17;13.67;;;29.90;1.00;;;;;;5040431;28;20458;-79
2023/06/10 11:15:46;;;;;;;77.37;13.60;;;29.90;1.00;;;;;;5040423;28;20423;-79
2023/06/10 11:18:29;;;;;;;76.27;14.30;;;30.00;1.00;;;;;;5057849;28;20434;-80
2023/06/10 11:20:56;;;;;;;75.07;12.40;;;30.20;1.00;;;;;;5040167;28;20938;-79
2023/06/10 11:23:25;;;;;;;74.00;12.37;;;30.40;1.00;;;;;;5058034;28;20929;-79
2023/06/10 11:25:51;;;;;;;74.47;13.00;;;30.50;1.00;;;;;;5057702;28;20504;-80
2023/06/10 11:28:20;;;;;;;74.73;11.30;;;30.70;1.00;;;;;;5040481;28;20423;-79
2023/06/10 11:30:56;;;;;;;73.70;8.13;;;30.90;1.00;;;;;;5058496;28;20255;-79
2023/06/10 11:33:23;;;;;;;75.97;7.13;;;31.10;1.00;;;;;;5057294;28;20481;-78
2023/06/10 11:35:50;;;;;;;73.10;6.70;;;31.30;1.00;;;;;;5040125;28;20453;-80
2023/06/10 11:38:15;;;;;;;72.27;5.73;;;30.90;1.00;;;;;;5039949;28;20423;-80
2023/06/10 11:40:52;;;;;;;72.00;5.90;;;31.10;1.00;;;;;;5057447;28;20402;-79
2023/06/10 11:43:18;;;;;;;72.47;7.50;;;31.50;1.00;;;;;;5058363;28;20144;-79
2023/06/10 11:45:44;;;;;;;72.53;5.77;;;31.80;1.00;;;;;;5057434;28;20405;-79
2023/06/10 11:48:12;;;;;;;74.00;6.10;;;32.20;1.00;;;;;;5057592;28;20422;-79
2023/06/10 11:50:38;;;;;;;71.80;6.27;;;32.40;1.00;;;;;;5041857;28;20987;-80
2023/06/10 11:53:04;;;;;;;73.27;6.00;;;32.50;1.00;;;;;;5040852;28;20522;-80
2023/06/10 11:55:48;;;;;;;71.57;6.13;;;32.60;1.00;;;;;;5059409;28;20395;-80
2023/06/10 11:58:18;;;;;;;72.03;6.80;;;32.20;1.00;;;;;;5041449;28;20442;-80
2023/06/10 12:00:57;;;;;;;73.63;6.60;;;31.60;1.00;;;;;;5059516;28;20384;-80
2023/06/10 12:03:23;;;;;;;72.10;5.73;;;31.20;1.00;;;;;;5059196;28;20402;-81
2023/06/10 12:06:06;;;;;;;72.37;5.90;;;31.60;1.00;;;;;;5059653;28;20410;-80
2023/06/10 12:08:32;;;;;;;70.97;6.10;;;32.00;1.00;;;;;;5042223;28;20431;-83
2023/06/10 12:10:58;;;;;;;72.60;6.90;;;31.70;1.00;;;;;;5059935;28;20408;-83
2023/06/10 12:13:27;;;;;;;72.33;6.33;;;31.50;1.00;;;;;;5060243;28;20431;-83
2023/06/10 12:15:53;;;;;;;74.67;6.60;;;31.80;1.00;;;;;;5042465;28;20447;-84
2023/06/10 12:18:24;;;;;;;73.77;6.20;;;32.00;1.00;;;;;;5059387;28;20455;-83
2023/06/10 12:20:51;;;;;;;72.07;6.00;;;31.90;1.00;;;;;;5060132;28;20438;-83
2023/06/10 12:23:18;;;;;;;71.60;6.23;;;31.50;1.00;;;;;;5041607;28;20468;-83
2023/06/10 12:25:51;;;;;;;72.10;6.13;;;31.50;1.00;;;;;;5059875;28;20407;-83
2023/06/10 12:28:20;;;;;;;71.57;5.53;;;31.50;1.00;;;;;;5058918;28;20426;-84
2023/06/10 12:30:46;;;;;;;72.57;6.07;;;31.60;1.00;;;;;;5059772;28;20763;-84
2023/06/10 12:33:21;;;;;;;71.40;5.63;;;31.30;1.00;;;;;;5059342;28;20445;-84
2023/06/10 12:35:51;;;;;;;71.50;6.30;;;30.70;1.00;;;;;;5060249;28;20188;-84
2023/06/10 12:38:31;;;;;;;72.07;6.00;;;30.20;1.00;;;;;;5041726;28;20435;-84
2023/06/10 12:41:06;;;;;;;72.33;6.20;;;29.90;1.00;;;;;;5041650;28;20434;-83
2023/06/10 12:43:32;;;;;;;74.00;6.00;;;29.70;1.00;;;;;;5041210;28;20430;-83
2023/06/10 12:46:09;;;;;;;71.77;5.70;;;29.90;1.00;;;;;;5041523;28;20937;-83
2023/06/10 12:48:35;;;;;;;74.80;6.40;;;30.30;1.00;;;;;;5058947;28;20426;-83
2023/06/10 12:51:01;;;;;;;71.43;5.40;;;30.50;1.00;;;;;;5059498;28;20387;-83
2023/06/10 12:53:29;;;;;;;71.80;5.83;;;30.80;1.00;;;;;;5041072;28;20447;-83
2023/06/10 12:55:55;;;;;;;72.00;5.60;;;31.20;1.00;;;;;;5041389;28;20184;-85
2023/06/10 12:58:28;;;;;;;72.27;5.70;;;31.30;1.00;;;;;;5040444;28;20799;-83
2023/06/10 13:00:54;;;;;;;71.50;5.13;;;31.40;1.00;;;;;;5058768;28;20157;-83
2023/06/10 13:03:20;;;;;;;72.43;5.57;;;31.60;1.00;;;;;;5059123;28;20479;-84
2023/06/10 13:05:46;;;;;;;71.57;5.10;;;31.70;1.00;;;;;;5059907;28;20165;-84
2023/06/10 13:08:11;;;;;;;71.33;5.37;;;31.70;1.00;;;;;;5041766;28;20431;-85
2023/06/10 13:10:37;;;;;;;73.73;5.03;;;31.60;1.00;;;;;;5060801;28;20563;-84
2023/06/10 13:13:09;;;;;;;72.27;5.00;;;31.60;1.00;;;;;;5041898;28;20189;-84
2023/06/10 13:15:38;;;;;;;75.50;5.57;;;31.80;1.00;;;;;;5042567;28;20156;-83
2023/06/10 13:18:04;;;;;;;70.80;4.70;;;32.00;1.00;;;;;;5059956;28;20473;-85
2023/06/10 13:20:30;;;;;;;72.00;5.90;;;31.90;1.00;;;;;;5041991;28;20395;-84
2023/06/10 13:22:56;;;;;;;71.77;6.07;;;31.70;1.00;;;;;;5059103;28;20407;-83
2023/06/10 13:25:22;;;;;;;70.50;5.03;;;31.50;1.00;;;;;;5041483;28;20414;-82
2023/06/10 13:27:48;;;;;;;74.17;6.10;;;31.80;1.00;;;;;;5058319;28;20188;-81
2023/06/10 13:30:14;;;;;;;72.80;5.50;;;32.20;1.00;;;;;;5058252;28;20403;-81
2023/06/10 13:32:40;;;;;;;77.33;7.10;;;32.00;1.00;;;;;;5041070;28;20926;-81
2023/06/10 13:35:07;;;;;;;74.70;5.97;;;32.00;1.00;;;;;;5040143;28;20168;-82
2023/06/10 13:37:33;;;;;;;73.40;6.20;;;31.90;1.00;;;;;;5058068;28;20216;-82
2023/06/10 13:40:02;;;;;;;71.10;4.80;;;32.20;1.00;;;;;;5040712;28;20411;-82
2023/06/10 13:42:29;;;;;;;80.27;6.50;;;32.40;1.00;;;;;;5056775;28;20399;-82
2023/06/10 13:44:54;;;;;;;73.70;6.07;;;32.50;1.00;;;;;;5039643;28;20926;-81
2023/06/10 13:47:20;;;;;;;73.70;6.80;;;32.10;1.00;;;;;;5059084;28;20423;-82
2023/06/10 13:49:46;;;;;;;72.77;8.50;;;32.10;1.00;;;;;;5040584;28;20175;-79
2023/06/10 13:52:12;;;;;;;73.93;13.80;;;32.30;1.00;;;;;;5037874;28;20465;-79
2023/06/10 13:54:37;;;;;;;76.23;16.90;;;32.10;1.00;;;;;;5055915;28;20193;-80
2023/06/10 13:57:12;;;;;;;71.10;5.87;;;32.30;1.00;;;;;;5037861;28;20567;-80
2023/06/10 13:59:38;;;;;;;74.20;8.60;;;32.30;1.00;;;;;;5055790;28;20246;-79
2023/06/10 14:02:04;;;;;;;75.07;14.90;;;32.40;1.00;;;;;;5037771;28;20426;-80